Time;durP1;ratioP1;P1;durP2;ratioP2;P2;SDS_P1;SDS_P2;PMS_P1;PMS_P2;Temp;Humidity;BMP_temperature;BMP_pressure;BME280_temperature;BME280_humidity;BME280_pressure;Samples;Min_cycle;Max_cycle;Signal;HPM_P1;HPM_P2
2022/12/06 00:01:24;;;;;;;2.15;1.55;;;;;;;;;;5015379;28;20464;-84
2022/12/06 00:03:55;;;;;;;3.00;1.60;;;;;;;;;;5015483;28;20038;-84
2022/12/06 00:06:22;;;;;;;3.25;1.85;;;;;;;;;;5016879;28;20030;-83
2022/12/06 00:08:48;;;;;;;2.63;2.00;;;;;;;;;;4998835;28;20025;-84
2022/12/06 00:11:16;;;;;;;2.58;1.73;;;;;;;;;;5016155;28;20030;-83
2022/12/06 00:13:42;;;;;;;3.08;1.80;;;;;;;;;;4998579;28;20029;-82
2022/12/06 00:16:13;;;;;;;2.25;1.63;;;;;;;;;;5015274;28;20026;-83
2022/12/06 00:18:39;;;;;;;3.05;1.75;;;;;;;;;;5014792;28;20029;-83
2022/12/06 00:21:07;;;;;;;2.35;1.80;;;;;;;;;;5016356;28;20093;-83
2022/12/06 00:23:40;;;;;;;2.20;1.73;;;;;;;;;;5014775;28;20068;-84
2022/12/06 00:26:07;;;;;;;2.80;1.60;;;;;;;;;;5014706;28;20033;-83
2022/12/06 00:28:33;;;;;;;2.45;1.55;;;;;;;;;;5014701;28;20034;-83
2022/12/06 00:31:00;;;;;;;1.88;1.65;;;;;;;;;;4998237;28;20026;-82
2022/12/06 00:33:26;;;;;;;2.55;1.60;;;;;;;;;;5014538;28;20095;-84
2022/12/06 00:36:06;;;;;;;2.13;1.50;;;;;;;;;;5014764;28;20330;-83
2022/12/06 00:38:33;;;;;;;3.53;1.73;;;;;;;;;;5014555;28;20054;-83
2022/12/06 00:41:03;;;;;;;5.05;2.70;;;;;;;;;;5016061;28;20075;-83
2022/12/06 00:43:30;;;;;;;1.70;1.40;;;;;;;;;;5015952;28;20018;-83
2022/12/06 00:45:55;;;;;;;1.67;1.42;;;;;;;;;;5014519;28;20507;-83
2022/12/06 00:48:21;;;;;;;3.47;1.80;;;;;;;;;;5014303;28;20052;-83
2022/12/06 00:50:47;;;;;;;1.80;1.50;;;;;;;;;;5014565;28;20444;-82
2022/12/06 00:53:13;;;;;;;1.98;1.60;;;;;;;;;;4997883;28;20443;-83
2022/12/06 00:55:38;;;;;;;3.55;1.75;;;;;;;;;;5014152;28;20037;-83
2022/12/06 00:58:03;;;;;;;2.45;1.48;;;;;;;;;;4997668;28;20034;-83
2022/12/06 01:00:29;;;;;;;1.52;1.35;;;;;;;;;;5014385;28;20048;-83
2022/12/06 01:02:56;;;;;;;3.33;1.60;;;;;;;;;;5015757;28;20453;-82
2022/12/06 01:05:22;;;;;;;2.28;1.27;;;;;;;;;;5015473;28;20021;-82
2022/12/06 01:07:48;;;;;;;3.08;1.30;;;;;;;;;;5015176;28;20032;-82
2022/12/06 01:10:13;;;;;;;4.78;1.50;;;;;;;;;;5013762;28;20034;-82
2022/12/06 01:12:39;;;;;;;1.60;1.45;;;;;;;;;;5015385;28;20124;-82
2022/12/06 01:15:04;;;;;;;2.78;1.90;;;;;;;;;;5015066;28;20068;-82
2022/12/06 01:17:30;;;;;;;2.47;1.30;;;;;;;;;;4997608;28;20038;-82
2022/12/06 01:19:55;;;;;;;3.38;1.30;;;;;;;;;;5014834;28;20126;-83
2022/12/06 01:22:20;;;;;;;3.50;1.42;;;;;;;;;;5015253;28;20033;-82
2022/12/06 01:24:47;;;;;;;1.77;1.40;;;;;;;;;;5014855;28;20030;-83
2022/12/06 01:27:12;;;;;;;3.67;1.90;;;;;;;;;;5015076;28;20058;-83
2022/12/06 01:29:38;;;;;;;2.63;1.10;;;;;;;;;;5013674;28;20076;-81
2022/12/06 01:32:03;;;;;;;1.65;1.30;;;;;;;;;;5013474;28;20080;-82
2022/12/06 01:34:29;;;;;;;5.10;1.88;;;;;;;;;;5013520;28;20033;-82
2022/12/06 01:36:54;;;;;;;1.90;1.40;;;;;;;;;;5013112;28;20119;-83
2022/12/06 01:39:19;;;;;;;2.92;1.50;;;;;;;;;;5014554;28;20080;-83
2022/12/06 01:41:45;;;;;;;2.70;1.30;;;;;;;;;;5014755;28;20427;-83
2022/12/06 01:44:46;;;;;;;2.03;1.25;;;;;;;;;;5013191;28;20045;-83
2022/12/06 01:47:18;;;;;;;2.03;1.30;;;;;;;;;;5014435;28;20030;-83
2022/12/06 01:50:02;;;;;;;4.38;1.20;;;;;;;;;;5013150;28;20022;-83
2022/12/06 01:52:30;;;;;;;1.52;1.20;;;;;;;;;;5013180;28;20032;-83
2022/12/06 01:54:58;;;;;;;2.70;1.45;;;;;;;;;;5013162;28;20145;-83
2022/12/06 01:57:23;;;;;;;2.00;1.20;;;;;;;;;;5013278;28;20029;-84
2022/12/06 01:59:48;;;;;;;2.63;1.50;;;;;;;;;;4996784;28;20033;-83
2022/12/06 02:02:14;;;;;;;2.20;1.40;;;;;;;;;;5012960;28;20495;-83
2022/12/06 02:04:39;;;;;;;1.95;1.42;;;;;;;;;;5014444;28;20033;-83
2022/12/06 02:07:06;;;;;;;3.30;1.40;;;;;;;;;;5013996;28;20105;-84
2022/12/06 02:09:31;;;;;;;2.80;1.35;;;;;;;;;;4996394;28;20036;-84
2022/12/06 02:11:56;;;;;;;3.88;1.60;;;;;;;;;;5012791;28;20030;-85
2022/12/06 02:14:26;;;;;;;2.20;1.40;;;;;;;;;;5012784;28;20486;-85
2022/12/06 02:16:57;;;;;;;4.32;1.58;;;;;;;;;;5012638;28;20113;-85
2022/12/06 02:19:51;;;;;;;2.08;1.23;;;;;;;;;;5012606;28;20026;-84
2022/12/06 02:22:20;;;;;;;;;;;;;;;;;;5014629;28;20026;-83
2022/12/06 02:24:53;;;;;;;1.90;1.30;;;;;;;;;;5012502;28;19917;-84
2022/12/06 02:27:40;;;;;;;2.38;1.40;;;;;;;;;;5012490;28;20032;-84
2022/12/06 02:30:30;;;;;;;1.67;1.40;;;;;;;;;;5013727;28;20033;-84
2022/12/06 02:33:07;;;;;;;3.03;1.58;;;;;;;;;;5013722;28;20504;-86
2022/12/06 02:35:39;;;;;;;1.88;1.33;;;;;;;;;;5012552;28;20029;-86
2022/12/06 02:38:27;;;;;;;2.63;1.60;;;;;;;;;;5012386;28;20034;-84
2022/12/06 02:40:57;;;;;;;2.00;1.25;;;;;;;;;;5013617;28;20018;-84
2022/12/06 02:43:27;;;;;;;4.30;1.20;;;;;;;;;;5013538;28;20021;-83
2022/12/06 02:45:55;;;;;;;2.75;1.40;;;;;;;;;;5029232;28;20022;-83
2022/12/06 02:48:22;;;;;;;2.00;1.40;;;;;;;;;;5012572;28;20033;-84
2022/12/06 02:50:53;;;;;;;3.08;1.42;;;;;;;;;;5012773;28;20030;-83
2022/12/06 02:53:21;;;;;;;2.40;1.48;;;;;;;;;;5012328;28;20389;-84
2022/12/06 02:55:46;;;;;;;3.47;1.52;;;;;;;;;;5012182;28;20029;-85
2022/12/06 02:58:12;;;;;;;5.05;1.40;;;;;;;;;;5012415;28;20038;-85
2022/12/06 03:00:43;;;;;;;2.53;1.30;;;;;;;;;;5012503;28;20045;-84
2022/12/06 03:03:24;;;;;;;1.70;1.20;;;;;;;;;;5012529;28;20037;-84
2022/12/06 03:06:01;;;;;;;2.78;1.58;;;;;;;;;;5012241;28;20469;-85
2022/12/06 03:08:34;;;;;;;5.35;1.50;;;;;;;;;;5013757;28;20025;-84
2022/12/06 03:11:00;;;;;;;2.47;1.60;;;;;;;;;;4995552;28;20053;-83
2022/12/06 03:13:45;;;;;;;2.00;1.30;;;;;;;;;;4995635;28;20026;-83
2022/12/06 03:16:25;;;;;;;3.95;1.40;;;;;;;;;;5012382;28;20030;-83
2022/12/06 03:19:09;;;;;;;2.33;1.20;;;;;;;;;;5015824;28;20025;-85
2022/12/06 03:21:48;;;;;;;1.40;1.30;;;;;;;;;;5017573;28;20030;-84
2022/12/06 03:24:15;;;;;;;2.60;1.30;;;;;;;;;;5016095;28;20033;-84
2022/12/06 03:26:44;;;;;;;2.72;1.35;;;;;;;;;;4999489;28;20025;-84
2022/12/06 03:29:11;;;;;;;2.75;1.40;;;;;;;;;;5015992;28;20030;-84
2022/12/06 03:31:38;;;;;;;3.40;1.40;;;;;;;;;;5015959;28;20038;-84
2022/12/06 03:34:10;;;;;;;2.03;1.25;;;;;;;;;;5016133;28;20026;-84
2022/12/06 03:36:36;;;;;;;2.42;1.30;;;;;;;;;;5015897;28;20115;-84
2022/12/06 03:39:04;;;;;;;2.88;1.17;;;;;;;;;;5017171;28;20497;-84
2022/12/06 03:41:33;;;;;;;3.33;1.40;;;;;;;;;;4999155;28;20026;-84
2022/12/06 03:43:59;;;;;;;1.55;1.20;;;;;;;;;;5016958;28;20539;-84
2022/12/06 03:46:33;;;;;;;2.53;1.20;;;;;;;;;;4999261;28;20068;-84
2022/12/06 03:49:00;;;;;;;;;;;;;;;;;;5015899;28;20546;-85
2022/12/06 03:51:28;;;;;;;2.38;1.13;;;;;;;;;;5032215;28;20336;-84
2022/12/06 03:53:57;;;;;;;4.28;1.65;;;;;;;;;;5015435;28;20025;-84
2022/12/06 03:56:23;;;;;;;3.45;1.27;;;;;;;;;;5015578;28;20523;-83
2022/12/06 03:58:48;;;;;;;1.83;1.38;;;;;;;;;;5015206;28;20373;-83
2022/12/06 04:01:14;;;;;;;2.78;1.25;;;;;;;;;;5015465;28;20048;-83
2022/12/06 04:03:40;;;;;;;5.63;1.48;;;;;;;;;;5015439;28;20034;-83
2022/12/06 04:06:06;;;;;;;1.58;1.08;;;;;;;;;;5016230;28;20443;-82
2022/12/06 04:08:32;;;;;;;1.02;1.00;;;;;;;;;;5016265;28;20025;-83
2022/12/06 04:10:57;;;;;;;3.35;1.42;;;;;;;;;;5016343;28;20045;-82
2022/12/06 04:13:23;;;;;;;3.17;1.30;;;;;;;;;;5014901;28;20030;-82
2022/12/06 04:15:48;;;;;;;1.67;1.20;;;;;;;;;;4998566;28;20037;-82
2022/12/06 04:18:15;;;;;;;4.18;1.50;;;;;;;;;;5014713;28;20469;-82
2022/12/06 04:23:38;;;;;;;3.13;1.17;;;;;;;;;;5029278;28;20393;-83
2022/12/06 04:26:05;;;;;;;1.52;1.08;;;;;;;;;;5015012;28;20033;-83
2022/12/06 04:39:28;;;;;;;2.25;1.00;;;;;;;;;;5014943;28;20100;-83
2022/12/06 04:44:38;;;;;;;3.92;1.13;;;;;;;;;;5015952;28;20122;-82
2022/12/06 04:47:04;;;;;;;4.47;1.20;;;;;;;;;;5014684;28;20109;-82
2022/12/06 04:49:29;;;;;;;2.25;1.10;;;;;;;;;;5014261;28;20378;-82
2022/12/06 04:51:55;;;;;;;1.25;1.00;;;;;;;;;;5015716;28;20071;-83
2022/12/06 04:54:21;;;;;;;3.05;1.17;;;;;;;;;;5014302;28;20036;-84
2022/12/06 04:56:46;;;;;;;2.55;1.40;;;;;;;;;;5014339;28;20030;-85
2022/12/06 04:59:12;;;;;;;3.20;1.20;;;;;;;;;;5015500;28;20033;-84
2022/12/06 05:01:37;;;;;;;1.75;1.00;;;;;;;;;;5016368;28;20457;-84
2022/12/06 05:04:03;;;;;;;2.60;1.27;;;;;;;;;;5016013;28;20076;-83
2022/12/06 05:06:28;;;;;;;3.05;1.38;;;;;;;;;;5014386;28;20076;-84
2022/12/06 05:08:53;;;;;;;3.33;1.13;;;;;;;;;;4997833;28;20484;-81
2022/12/06 05:11:19;;;;;;;3.10;1.20;;;;;;;;;;5014288;28;20034;-83
2022/12/06 05:13:44;;;;;;;2.40;1.33;;;;;;;;;;5015327;28;20491;-82
2022/12/06 05:16:09;;;;;;;2.35;1.10;;;;;;;;;;5014677;28;20030;-81
2022/12/06 05:18:35;;;;;;;2.28;1.02;;;;;;;;;;5015268;28;20113;-79
2022/12/06 05:21:05;;;;;;;2.38;1.17;;;;;;;;;;4997560;28;20033;-81
2022/12/06 05:23:31;;;;;;;2.03;1.05;;;;;;;;;;5015161;28;20116;-81
2022/12/06 05:26:01;;;;;;;3.10;1.25;;;;;;;;;;5013955;28;20048;-80
2022/12/06 05:28:27;;;;;;;5.63;1.10;;;;;;;;;;5013836;28;20025;-80
2022/12/06 05:30:52;;;;;;;2.90;1.00;;;;;;;;;;5013988;28;20362;-81
2022/12/06 05:33:18;;;;;;;4.03;1.40;;;;;;;;;;5015279;28;20095;-83
2022/12/06 05:35:43;;;;;;;3.70;1.38;;;;;;;;;;5014894;28;20045;-84
2022/12/06 05:38:09;;;;;;;8.75;1.20;;;;;;;;;;5013505;28;20050;-84
2022/12/06 05:40:34;;;;;;;7.28;1.60;;;;;;;;;;5013268;28;20495;-83
2022/12/06 05:42:59;;;;;;;2.78;1.50;;;;;;;;;;5013886;28;20090;-82
2022/12/06 05:45:25;;;;;;;6.78;1.30;;;;;;;;;;5015337;28;20358;-84
2022/12/06 05:47:50;;;;;;;3.55;1.20;;;;;;;;;;5013376;28;20065;-82
2022/12/06 05:50:15;;;;;;;3.88;1.10;;;;;;;;;;5014579;28;20034;-81
2022/12/06 05:52:41;;;;;;;6.65;1.40;;;;;;;;;;5013454;28;20030;-78
2022/12/06 05:55:06;;;;;;;10.55;1.70;;;;;;;;;;5014580;28;20037;-81
2022/12/06 05:57:32;;;;;;;6.53;2.08;;;;;;;;;;5014506;28;20022;-81
2022/12/06 05:59:57;;;;;;;27.65;4.95;;;;;;;;;;5013568;28;20029;-84
2022/12/06 06:02:22;;;;;;;21.13;3.08;;;;;;;;;;5014466;28;20121;-84
2022/12/06 06:04:48;;;;;;;24.45;3.53;;;;;;;;;;5014553;28;20480;-84
2022/12/06 06:07:13;;;;;;;17.13;3.15;;;;;;;;;;5012989;28;20051;-84
2022/12/06 06:09:38;;;;;;;15.30;2.88;;;;;;;;;;5013026;28;20037;-83
2022/12/06 06:12:04;;;;;;;12.75;2.60;;;;;;;;;;4996669;28;20484;-84
2022/12/06 06:14:29;;;;;;;8.05;2.38;;;;;;;;;;5014077;28;20033;-84
2022/12/06 06:16:55;;;;;;;10.77;2.33;;;;;;;;;;4996726;28;20064;-84
2022/12/06 06:19:23;;;;;;;7.72;2.22;;;;;;;;;;5014275;28;20038;-84
2022/12/06 06:21:48;;;;;;;8.52;1.77;;;;;;;;;;5014129;28;20033;-85
2022/12/06 06:24:14;;;;;;;10.73;2.45;;;;;;;;;;5012881;28;20033;-84
2022/12/06 06:26:39;;;;;;;9.63;1.88;;;;;;;;;;5014022;28;20080;-83
2022/12/06 06:29:04;;;;;;;10.15;1.73;;;;;;;;;;5013041;28;20029;-83
2022/12/06 06:31:30;;;;;;;3.55;1.48;;;;;;;;;;5012943;28;20130;-83
2022/12/06 06:33:55;;;;;;;4.57;1.83;;;;;;;;;;5014162;28;20220;-84
2022/12/06 06:36:21;;;;;;;7.75;1.33;;;;;;;;;;5012595;28;20053;-83
2022/12/06 06:38:46;;;;;;;3.75;1.38;;;;;;;;;;5013143;28;20041;-82
2022/12/06 06:41:11;;;;;;;4.40;1.83;;;;;;;;;;5012873;28;20080;-82
2022/12/06 06:43:37;;;;;;;5.15;1.50;;;;;;;;;;5012710;28;20381;-83
2022/12/06 06:46:07;;;;;;;5.55;1.50;;;;;;;;;;5012510;28;20029;-83
2022/12/06 06:48:37;;;;;;;3.70;1.50;;;;;;;;;;5028664;28;20025;-83
2022/12/06 06:51:04;;;;;;;3.17;1.33;;;;;;;;;;5012548;28;20042;-83
2022/12/06 06:53:30;;;;;;;3.20;1.13;;;;;;;;;;5012563;28;20527;-84
2022/12/06 06:55:55;;;;;;;4.03;1.50;;;;;;;;;;5012548;28;20030;-83
2022/12/06 06:58:21;;;;;;;3.80;1.20;;;;;;;;;;5013862;28;20127;-83
2022/12/06 07:00:54;;;;;;;3.88;1.50;;;;;;;;;;5014063;28;20428;-83
2022/12/06 07:03:20;;;;;;;3.03;1.13;;;;;;;;;;4996028;28;20025;-84
2022/12/06 07:06:00;;;;;;;3.25;1.30;;;;;;;;;;5013850;28;20041;-83
2022/12/06 07:08:27;;;;;;;2.53;1.35;;;;;;;;;;5012334;28;20072;-84
2022/12/06 07:10:53;;;;;;;1.77;1.15;;;;;;;;;;5012504;28;20021;-84
2022/12/06 07:13:20;;;;;;;3.20;1.30;;;;;;;;;;5012569;28;20080;-84
2022/12/06 07:15:45;;;;;;;3.63;1.20;;;;;;;;;;5013656;28;20481;-84
2022/12/06 07:18:11;;;;;;;3.35;1.20;;;;;;;;;;5012278;28;20101;-83
2022/12/06 07:20:36;;;;;;;1.95;1.27;;;;;;;;;;5013896;28;20113;-83
2022/12/06 07:23:02;;;;;;;1.92;1.15;;;;;;;;;;5013616;28;20053;-83
2022/12/06 07:25:27;;;;;;;2.58;1.20;;;;;;;;;;5013530;28;20030;-84
2022/12/06 07:27:53;;;;;;;1.35;0.95;;;;;;;;;;4995735;28;20022;-83
2022/12/06 07:30:18;;;;;;;1.67;0.90;;;;;;;;;;5013554;28;20034;-83
2022/12/06 07:32:43;;;;;;;1.58;1.00;;;;;;;;;;5011775;28;20034;-82
2022/12/06 07:35:09;;;;;;;1.40;0.90;;;;;;;;;;5011896;28;20045;-84
2022/12/06 07:37:35;;;;;;;1.90;1.00;;;;;;;;;;5013242;28;20042;-84
2022/12/06 07:40:00;;;;;;;1.70;1.15;;;;;;;;;;5013587;28;20038;-83
2022/12/06 07:45:11;;;;;;;1.45;0.80;;;;;;;;;;5013508;28;20084;-84
2022/12/06 07:47:39;;;;;;;2.45;1.25;;;;;;;;;;5013456;28;20034;-84
2022/12/06 07:50:07;;;;;;;1.88;0.98;;;;;;;;;;5013446;28;20029;-84
2022/12/06 07:52:34;;;;;;;5.25;1.10;;;;;;;;;;5012027;28;20113;-84
2022/12/06 07:54:59;;;;;;;1.27;0.80;;;;;;;;;;5011939;28;20096;-84
2022/12/06 07:57:25;;;;;;;2.80;1.00;;;;;;;;;;5012467;28;20476;-84
2022/12/06 07:59:50;;;;;;;1.63;0.80;;;;;;;;;;5011912;28;20086;-83
2022/12/06 08:02:21;;;;;;;3.28;1.20;;;;;;;;;;5013002;28;20543;-83
2022/12/06 08:04:47;;;;;;;2.92;0.98;;;;;;;;;;5015122;28;20026;-83
2022/12/06 08:07:12;;;;;;;3.53;0.90;;;;;;;;;;5015516;28;20457;-83
2022/12/06 08:09:38;;;;;;;1.63;0.93;;;;;;;;;;5016198;28;20092;-83
2022/12/06 08:12:04;;;;;;;2.80;1.20;;;;;;;;;;5016000;28;20022;-83
2022/12/06 08:14:29;;;;;;;3.65;0.90;;;;;;;;;;5016706;28;20045;-83
2022/12/06 08:16:55;;;;;;;2.63;0.95;;;;;;;;;;5017388;28;20471;-83
2022/12/06 08:19:20;;;;;;;1.80;1.40;;;;;;;;;;5016407;28;20045;-83
2022/12/06 08:21:46;;;;;;;1.00;0.90;;;;;;;;;;5016609;28;20034;-82
2022/12/06 08:24:12;;;;;;;1.67;1.08;;;;;;;;;;5016612;28;20068;-83
2022/12/06 08:26:37;;;;;;;1.05;0.95;;;;;;;;;;5015042;28;20058;-83
2022/12/06 08:29:03;;;;;;;3.08;0.82;;;;;;;;;;5016185;28;20461;-83
2022/12/06 08:31:38;;;;;;;1.85;0.98;;;;;;;;;;5014979;28;20030;-83
2022/12/06 08:34:03;;;;;;;2.55;1.00;;;;;;;;;;5016455;28;20080;-83
2022/12/06 08:36:29;;;;;;;1.55;0.90;;;;;;;;;;5015898;28;20029;-83
2022/12/06 08:38:55;;;;;;;0.98;0.90;;;;;;;;;;5014849;28;20041;-83
2022/12/06 08:44:09;;;;;;;2.17;1.10;;;;;;;;;;5015861;28;20076;-83
2022/12/06 08:46:34;;;;;;;2.15;1.27;;;;;;;;;;4998323;28;20079;-83
2022/12/06 08:49:00;;;;;;;3.35;0.95;;;;;;;;;;5015878;28;20033;-82
2022/12/06 08:51:26;;;;;;;3.35;1.27;;;;;;;;;;5016066;28;20030;-82
2022/12/06 08:53:52;;;;;;;3.50;1.23;;;;;;;;;;5015691;28;20033;-84
2022/12/06 08:56:18;;;;;;;2.83;1.30;;;;;;;;;;5014664;28;20434;-82
2022/12/06 08:58:43;;;;;;;6.60;1.58;;;;;;;;;;5014375;28;20029;-79
2022/12/06 09:01:30;;;;;;;4.82;1.65;;;;;;;;;;4998141;28;20037;-81
2022/12/06 09:03:57;;;;;;;5.43;1.70;;;;;;;;;;5015289;28;20454;-81
2022/12/06 09:06:23;;;;;;;7.43;1.80;;;;;;;;;;4997831;28;20062;-80
2022/12/06 09:08:49;;;;;;;8.50;1.98;;;;;;;;;;4997803;28;20056;-81
2022/12/06 09:11:15;;;;;;;5.55;1.60;;;;;;;;;;4997689;28;20121;-81
2022/12/06 09:13:41;;;;;;;4.38;1.52;;;;;;;;;;5014744;28;20416;-81
2022/12/06 09:16:12;;;;;;;7.45;1.70;;;;;;;;;;5013279;28;20104;-81
2022/12/06 09:18:37;;;;;;;7.38;1.52;;;;;;;;;;5014030;28;20050;-81
2022/12/06 09:21:08;;;;;;;4.13;1.52;;;;;;;;;;5014000;28;20457;-81
2022/12/06 09:23:34;;;;;;;5.10;1.40;;;;;;;;;;5014540;28;20034;-81
2022/12/06 09:26:00;;;;;;;4.43;1.67;;;;;;;;;;5013992;28;20049;-81
2022/12/06 09:28:25;;;;;;;3.17;1.40;;;;;;;;;;5014174;28;20076;-81
2022/12/06 09:30:51;;;;;;;3.28;1.52;;;;;;;;;;5013976;28;20034;-81
2022/12/06 09:33:16;;;;;;;1.88;1.52;;;;;;;;;;5013810;28;20033;-81
2022/12/06 09:35:42;;;;;;;7.07;1.77;;;;;;;;;;5015170;28;20130;-80
2022/12/06 09:38:07;;;;;;;6.35;1.52;;;;;;;;;;5013719;28;20072;-81
2022/12/06 09:40:38;;;;;;;7.72;1.60;;;;;;;;;;4997289;28;20053;-81
2022/12/06 09:43:29;;;;;;;3.90;1.65;;;;;;;;;;5013751;28;20030;-82
2022/12/06 09:46:25;;;;;;;2.58;1.55;;;;;;;;;;5004692;28;20057;-79
2022/12/06 09:49:06;;;;;;;5.97;1.65;;;;;;;;;;4985978;28;20038;-80
2022/12/06 09:51:57;;;;;;;5.35;1.50;;;;;;;;;;5014964;28;20360;-80
2022/12/06 09:54:56;;;;;;;5.90;1.58;;;;;;;;;;4986947;28;20046;-80
2022/12/06 09:57:40;;;;;;;4.88;1.50;;;;;;;;;;5014118;28;20102;-78
2022/12/06 10:00:13;;;;;;;3.20;1.67;;;;;;;;;;5013769;28;20552;-78
2022/12/06 10:03:15;;;;;;;9.50;1.80;;;;;;;;;;5012800;28;20026;-79
2022/12/06 10:06:01;;;;;;;2.83;1.35;;;;;;;;;;5009499;28;20377;-78
2022/12/06 10:09:07;;;;;;;4.53;1.55;;;;;;;;;;5012423;28;20054;-81
2022/12/06 10:11:56;;;;;;;5.25;1.48;;;;;;;;;;5012309;28;20021;-77
2022/12/06 10:14:30;;;;;;;6.50;1.60;;;;;;;;;;4995861;28;20117;-80
2022/12/06 10:17:07;;;;;;;4.22;1.40;;;;;;;;;;5013769;28;20025;-79
2022/12/06 10:19:39;;;;;;;13.43;1.83;;;;;;;;;;5012072;28;20076;-79
2022/12/06 10:22:22;;;;;;;7.05;1.90;;;;;;;;;;5020997;28;20025;-80
2022/12/06 10:25:21;;;;;;;6.05;1.27;;;;;;;;;;5027694;28;20022;-80
2022/12/06 10:27:55;;;;;;;4.38;1.20;;;;;;;;;;4997903;28;20030;-80
2022/12/06 10:30:20;;;;;;;6.95;1.63;;;;;;;;;;5013454;28;20402;-79
2022/12/06 10:32:45;;;;;;;4.60;1.60;;;;;;;;;;5013569;28;20064;-80
2022/12/06 10:35:23;;;;;;;3.53;1.20;;;;;;;;;;5013218;28;20400;-80
2022/12/06 10:37:55;;;;;;;5.35;1.40;;;;;;;;;;4995545;28;20405;-78
2022/12/06 10:40:30;;;;;;;4.22;1.50;;;;;;;;;;5011851;28;20494;-78
2022/12/06 10:43:11;;;;;;;2.20;1.25;;;;;;;;;;5012180;28;20396;-78
2022/12/06 10:48:42;;;;;;;3.72;1.20;;;;;;;;;;5012134;28;20472;-79
2022/12/06 10:51:19;;;;;;;2.15;1.17;;;;;;;;;;5011748;28;20481;-79
2022/12/06 10:53:52;;;;;;;1.90;1.08;;;;;;;;;;5012142;28;20038;-78
2022/12/06 10:56:18;;;;;;;6.60;1.25;;;;;;;;;;5011828;28;20491;-79
2022/12/06 10:59:03;;;;;;;6.32;1.40;;;;;;;;;;5011826;28;20048;-78
2022/12/06 11:01:36;;;;;;;2.42;1.08;;;;;;;;;;4994985;28;20038;-78
2022/12/06 11:04:11;;;;;;;8.93;1.30;;;;;;;;;;5011722;28;20476;-78
2022/12/06 11:06:47;;;;;;;1.90;0.80;;;;;;;;;;5011531;28;20068;-78
2022/12/06 11:09:15;;;;;;;1.98;1.15;;;;;;;;;;5011806;28;20488;-78
2022/12/06 11:11:42;;;;;;;3.60;1.27;;;;;;;;;;5012661;28;20493;-78
2022/12/06 11:14:20;;;;;;;2.60;1.00;;;;;;;;;;5012888;28;20038;-78
2022/12/06 11:16:57;;;;;;;4.35;1.25;;;;;;;;;;4995505;28;20088;-78
2022/12/06 11:19:38;;;;;;;5.35;1.45;;;;;;;;;;5011447;28;20033;-78
2022/12/06 11:22:12;;;;;;;4.38;1.10;;;;;;;;;;5011863;28;20504;-78
2022/12/06 11:24:46;;;;;;;1.25;1.00;;;;;;;;;;5011238;28;20045;-79
2022/12/06 11:27:15;;;;;;;2.10;1.10;;;;;;;;;;5011841;28;20512;-78
2022/12/06 11:29:44;;;;;;;1.83;1.17;;;;;;;;;;4994772;28;20495;-79
2022/12/06 11:32:11;;;;;;;2.63;1.27;;;;;;;;;;5011760;28;20029;-79
2022/12/06 11:34:40;;;;;;;3.60;1.20;;;;;;;;;;4994961;28;20042;-80
2022/12/06 11:37:07;;;;;;;2.53;1.30;;;;;;;;;;5011705;28;20042;-80
2022/12/06 11:39:33;;;;;;;4.07;1.33;;;;;;;;;;5012877;28;20033;-80
2022/12/06 11:42:02;;;;;;;6.57;1.10;;;;;;;;;;5015432;28;20033;-80
2022/12/06 11:44:40;;;;;;;2.25;1.15;;;;;;;;;;5015794;28;20048;-78
2022/12/06 11:47:06;;;;;;;2.78;1.30;;;;;;;;;;5015869;28;20057;-78
2022/12/06 11:49:36;;;;;;;6.50;1.30;;;;;;;;;;5016020;28;20041;-79
2022/12/06 11:52:07;;;;;;;2.45;1.20;;;;;;;;;;5017113;28;20032;-78
2022/12/06 11:54:54;;;;;;;2.85;1.20;;;;;;;;;;4999215;28;20125;-78
2022/12/06 11:57:23;;;;;;;2.25;1.27;;;;;;;;;;5015785;28;20068;-78
2022/12/06 12:00:10;;;;;;;2.17;1.20;;;;;;;;;;5016956;28;20473;-79
2022/12/06 12:02:36;;;;;;;6.05;1.67;;;;;;;;;;5016966;28;20056;-79
2022/12/06 12:05:37;;;;;;;3.00;1.83;;;;;;;;;;5016905;28;20033;-78
2022/12/06 12:08:17;;;;;;;5.72;2.00;;;;;;;;;;5046841;28;20413;-78
2022/12/06 12:10:44;;;;;;;8.65;2.60;;;;;;;;;;5013472;28;20030;-78
2022/12/06 12:15:56;;;;;;;12.05;3.20;;;;;;;;;;5016249;28;20050;-78
2022/12/06 12:18:25;;;;;;;7.93;3.45;;;;;;;;;;5016376;28;20034;-79
2022/12/06 12:20:51;;;;;;;7.28;4.22;;;;;;;;;;5013456;28;20038;-79
2022/12/06 12:23:21;;;;;;;6.35;4.50;;;;;;;;;;5013398;28;20028;-79
2022/12/06 12:26:03;;;;;;;9.63;4.55;;;;;;;;;;4995556;28;20037;-79
2022/12/06 12:28:33;;;;;;;7.85;4.40;;;;;;;;;;5014949;28;20022;-79
2022/12/06 12:31:07;;;;;;;11.20;4.30;;;;;;;;;;5013403;28;20420;-79
2022/12/06 12:33:33;;;;;;;6.57;4.50;;;;;;;;;;5013562;28;20048;-80
2022/12/06 12:36:01;;;;;;;8.05;5.20;;;;;;;;;;5014790;28;20124;-79
2022/12/06 12:38:36;;;;;;;8.52;4.43;;;;;;;;;;5014374;28;20049;-79
2022/12/06 12:41:20;;;;;;;9.25;5.20;;;;;;;;;;5029772;28;20633;-79
2022/12/06 12:43:56;;;;;;;7.55;5.07;;;;;;;;;;5012990;28;20042;-79
2022/12/06 12:46:21;;;;;;;7.15;4.72;;;;;;;;;;4997324;28;20029;-80
2022/12/06 12:48:49;;;;;;;7.57;4.38;;;;;;;;;;5013205;28;20076;-78
2022/12/06 12:51:35;;;;;;;10.98;4.95;;;;;;;;;;5014230;28;20048;-79
2022/12/06 12:54:18;;;;;;;8.07;4.60;;;;;;;;;;5013004;28;20026;-79
2022/12/06 12:56:43;;;;;;;8.55;4.28;;;;;;;;;;5013768;28;20025;-79
2022/12/06 12:59:14;;;;;;;7.25;4.03;;;;;;;;;;5028376;28;20389;-79
2022/12/06 13:01:57;;;;;;;6.80;4.00;;;;;;;;;;5013059;28;20037;-79
2022/12/06 13:04:41;;;;;;;8.65;3.95;;;;;;;;;;5013524;28;20493;-79
2022/12/06 13:07:22;;;;;;;8.75;3.90;;;;;;;;;;5013341;28;20018;-80
2022/12/06 13:10:03;;;;;;;9.07;3.97;;;;;;;;;;5013496;28;20022;-79
2022/12/06 13:12:33;;;;;;;9.00;3.78;;;;;;;;;;5014523;28;20041;-82
2022/12/06 13:15:31;;;;;;;8.18;3.80;;;;;;;;;;5013307;28;20030;-80
2022/12/06 13:18:10;;;;;;;7.15;4.07;;;;;;;;;;5009478;28;20048;-78
2022/12/06 13:20:36;;;;;;;9.30;3.97;;;;;;;;;;5013307;28;20030;-79
2022/12/06 13:23:14;;;;;;;7.78;3.67;;;;;;;;;;5014295;28;20045;-78
2022/12/06 13:25:42;;;;;;;5.03;3.40;;;;;;;;;;5014439;28;20041;-80
2022/12/06 13:28:26;;;;;;;11.23;3.25;;;;;;;;;;4997814;28;20029;-80
2022/12/06 13:30:53;;;;;;;;;;;;;;;;;;5013701;28;20282;-80
2022/12/06 13:33:22;;;;;;;7.78;2.88;;;;;;;;;;5014309;28;19913;-79
2022/12/06 13:35:53;;;;;;;9.55;2.92;;;;;;;;;;5013060;28;20034;-79
2022/12/06 13:38:18;;;;;;;4.32;2.78;;;;;;;;;;5012586;28;20046;-79
2022/12/06 13:40:57;;;;;;;7.93;3.20;;;;;;;;;;5013245;28;20472;-79
2022/12/06 13:43:23;;;;;;;7.72;2.50;;;;;;;;;;5012836;28;20120;-80
2022/12/06 13:46:08;;;;;;;4.50;2.70;;;;;;;;;;5013984;28;20058;-80
2022/12/06 13:48:34;;;;;;;7.38;3.17;;;;;;;;;;5003295;28;20444;-78
2022/12/06 13:51:07;;;;;;;6.53;2.63;;;;;;;;;;5013912;28;20026;-81
2022/12/06 13:53:33;;;;;;;4.03;2.25;;;;;;;;;;5014181;28;20423;-81
2022/12/06 13:56:23;;;;;;;5.38;2.55;;;;;;;;;;5012722;28;20037;-81
2022/12/06 13:58:51;;;;;;;3.20;2.20;;;;;;;;;;5002086;28;20042;-81
2022/12/06 14:01:39;;;;;;;3.40;2.25;;;;;;;;;;5012907;28;20041;-81
2022/12/06 14:04:25;;;;;;;8.25;2.83;;;;;;;;;;5013773;28;20029;-80
2022/12/06 14:06:53;;;;;;;3.85;2.05;;;;;;;;;;5003860;28;20057;-82
2022/12/06 14:09:19;;;;;;;3.35;2.17;;;;;;;;;;5014336;28;20021;-81
2022/12/06 14:11:44;;;;;;;4.65;2.30;;;;;;;;;;5013043;28;20150;-80
2022/12/06 14:14:21;;;;;;;9.00;2.00;;;;;;;;;;5013273;28;20033;-82
2022/12/06 14:16:51;;;;;;;4.75;2.30;;;;;;;;;;4996679;28;20038;-82
2022/12/06 14:19:27;;;;;;;6.15;2.20;;;;;;;;;;5014404;28;20034;-81
2022/12/06 14:22:01;;;;;;;4.82;1.92;;;;;;;;;;5014249;28;20097;-81
2022/12/06 14:24:30;;;;;;;3.47;2.05;;;;;;;;;;5013217;28;20045;-81
2022/12/06 14:27:19;;;;;;;6.70;2.00;;;;;;;;;;5014473;28;20045;-80
2022/12/06 14:30:05;;;;;;;3.92;1.85;;;;;;;;;;5014046;28;20058;-81
2022/12/06 14:32:36;;;;;;;2.85;1.90;;;;;;;;;;5013452;28;20045;-81
2022/12/06 14:35:06;;;;;;;3.80;2.13;;;;;;;;;;5013921;28;20391;-80
2022/12/06 14:37:32;;;;;;;2.53;1.67;;;;;;;;;;5014043;28;20049;-80
2022/12/06 14:39:57;;;;;;;5.03;1.92;;;;;;;;;;5014439;28;20025;-81
2022/12/06 14:45:13;;;;;;;2.42;1.65;;;;;;;;;;5012477;28;20408;-82
2022/12/06 14:47:39;;;;;;;3.75;1.80;;;;;;;;;;5013559;28;20448;-82
2022/12/06 14:50:23;;;;;;;3.22;1.77;;;;;;;;;;5012425;28;20030;-83
2022/12/06 14:53:05;;;;;;;3.92;1.83;;;;;;;;;;5012807;28;20034;-81
2022/12/06 14:55:33;;;;;;;3.38;1.50;;;;;;;;;;4996728;28;20021;-83
2022/12/06 14:58:02;;;;;;;8.25;1.40;;;;;;;;;;5012548;28;20054;-81
2022/12/06 15:00:36;;;;;;;4.18;1.60;;;;;;;;;;5011582;28;20113;-83
2022/12/06 15:03:10;;;;;;;5.70;1.52;;;;;;;;;;5013356;28;20041;-82
2022/12/06 15:05:40;;;;;;;2.67;1.33;;;;;;;;;;5013832;28;20469;-83
2022/12/06 15:08:31;;;;;;;3.63;1.40;;;;;;;;;;4995959;28;20026;-82
2022/12/06 15:10:59;;;;;;;2.92;1.50;;;;;;;;;;5006159;28;20041;-83
2022/12/06 15:13:25;;;;;;;4.88;1.60;;;;;;;;;;5013707;28;20037;-80
2022/12/06 15:16:23;;;;;;;8.52;2.20;;;;;;;;;;5016409;28;20030;-82
2022/12/06 15:18:57;;;;;;;6.55;1.80;;;;;;;;;;4973509;28;20480;-83
2022/12/06 15:21:22;;;;;;;7.00;1.75;;;;;;;;;;5016470;28;20040;-83
2022/12/06 15:23:52;;;;;;;4.35;1.90;;;;;;;;;;5017649;28;20116;-82
2022/12/06 15:26:19;;;;;;;5.57;1.65;;;;;;;;;;4999782;28;20112;-82
2022/12/06 15:28:44;;;;;;;3.35;1.65;;;;;;;;;;5016237;28;20017;-81
2022/12/06 15:31:28;;;;;;;4.10;1.58;;;;;;;;;;5016190;28;20096;-82
2022/12/06 15:33:54;;;;;;;3.78;1.45;;;;;;;;;;4999505;28;20037;-82